Time;durP1;ratioP1;P1;durP2;ratioP2;P2;SDS_P1;SDS_P2;PMS_P1;PMS_P2;Temp;Humidity;BMP_temperature;BMP_pressure;BME280_temperature;BME280_humidity;BME280_pressure;Samples;Min_cycle;Max_cycle;Signal;HPM_P1;HPM_P2
2021/04/02 00:00:13;;;;;;;8.87;4.43;;;4.90;99.90;;;;;;4898871;29;20463;-81
2021/04/02 00:02:39;;;;;;;15.57;5.50;;;5.00;99.90;;;;;;4898914;29;20829;-82
2021/04/02 00:05:07;;;;;;;9.87;3.50;;;5.00;99.90;;;;;;4897487;29;20614;-82
2021/04/02 00:07:34;;;;;;;9.20;4.10;;;4.80;99.90;;;;;;4898804;29;20968;-82
2021/04/02 00:10:00;;;;;;;15.50;4.83;;;4.80;99.90;;;;;;4899012;29;20542;-82
2021/04/02 00:12:26;;;;;;;13.70;4.50;;;4.70;99.90;;;;;;4898673;29;20462;-81
2021/04/02 00:14:53;;;;;;;16.90;5.77;;;4.40;99.90;;;;;;4898643;29;20459;-82
2021/04/02 00:17:20;;;;;;;8.40;3.63;;;4.20;99.90;;;;;;4898779;29;20467;-81
2021/04/02 00:19:46;;;;;;;9.53;5.87;;;3.90;99.90;;;;;;4896833;29;20550;-82
2021/04/02 00:22:13;;;;;;;10.70;5.20;;;3.80;99.90;;;;;;4898560;29;20458;-81
2021/04/02 00:24:40;;;;;;;9.03;5.27;;;3.60;99.90;;;;;;4898413;29;20486;-82
2021/04/02 00:27:09;;;;;;;7.63;4.13;;;3.50;99.90;;;;;;4898370;29;20555;-81
2021/04/02 00:29:36;;;;;;;10.63;3.70;;;3.60;99.90;;;;;;4898244;29;20565;-82
2021/04/02 00:32:02;;;;;;;12.77;6.30;;;3.60;99.90;;;;;;4898269;29;20491;-81
2021/04/02 00:34:29;;;;;;;16.00;7.50;;;3.50;99.90;;;;;;4897170;29;20538;-81
2021/04/02 00:36:56;;;;;;;17.53;14.87;;;3.50;99.90;;;;;;4898170;29;20491;-81
2021/04/02 00:39:22;;;;;;;21.87;19.67;;;3.50;99.90;;;;;;4898447;29;20558;-81
2021/04/02 00:41:48;;;;;;;26.93;25.07;;;3.40;99.90;;;;;;4898184;29;20886;-81
2021/04/02 00:44:15;;;;;;;38.80;36.50;;;3.30;99.90;;;;;;4898149;29;20526;-81
2021/04/02 00:46:49;;;;;;;37.97;34.80;;;3.30;99.90;;;;;;4898030;29;20497;-81
2021/04/02 00:49:15;;;;;;;42.00;39.77;;;3.20;99.90;;;;;;4896857;29;20545;-81
2021/04/02 00:51:42;;;;;;;48.70;45.30;;;3.20;99.90;;;;;;4898074;29;20584;-81
2021/04/02 00:54:09;;;;;;;53.60;50.57;;;3.20;99.90;;;;;;4897975;29;20457;-81
2021/04/02 00:56:35;;;;;;;41.37;39.33;;;3.20;99.90;;;;;;4898011;29;20462;-82
2021/04/02 00:59:03;;;;;;;44.07;41.00;;;3.10;99.90;;;;;;4897946;29;21006;-81
2021/04/02 01:01:32;;;;;;;50.70;47.83;;;3.00;99.90;;;;;;4897988;29;20591;-81
2021/04/02 01:03:58;;;;;;;47.37;44.67;;;3.00;99.90;;;;;;4896830;29;20455;-81
2021/04/02 01:06:27;;;;;;;44.95;42.78;;;3.00;99.90;;;;;;4897888;29;20536;-81
2021/04/02 01:08:56;;;;;;;40.37;38.27;;;2.90;99.90;;;;;;4897852;29;20237;-81
2021/04/02 01:11:25;;;;;;;40.23;37.80;;;3.00;99.90;;;;;;4897917;29;20454;-81
2021/04/02 01:13:54;;;;;;;37.37;35.27;;;3.10;99.90;;;;;;5341251;23;20488;-81
2021/04/02 01:16:21;;;;;;;38.50;36.60;;;3.10;99.90;;;;;;4935680;29;20463;-81
2021/04/02 01:18:52;;;;;;;46.63;44.37;;;3.20;99.90;;;;;;4934507;29;20469;-81
2021/04/02 01:21:26;;;;;;;56.10;52.40;;;3.20;99.90;;;;;;4935644;29;20468;-81
2021/04/02 01:24:06;;;;;;;69.77;66.17;;;3.40;99.90;;;;;;4935605;29;20484;-81
2021/04/02 01:26:49;;;;;;;60.50;57.37;;;3.30;99.90;;;;;;4935571;29;20491;-83
2021/04/02 01:29:21;;;;;;;69.97;66.27;;;3.30;99.90;;;;;;4935534;29;20853;-83
2021/04/02 01:31:50;;;;;;;61.47;58.17;;;3.30;99.90;;;;;;4937711;29;20457;-83
2021/04/02 01:34:20;;;;;;;47.40;44.87;;;3.10;99.90;;;;;;4938095;29;20461;-83
2021/04/02 01:36:49;;;;;;;46.23;43.97;;;3.20;99.90;;;;;;4939318;29;20495;-83
2021/04/02 01:39:16;;;;;;;54.13;51.17;;;3.00;99.90;;;;;;4939321;29;20460;-83
2021/04/02 01:41:45;;;;;;;44.67;42.43;;;3.10;99.90;;;;;;4939295;29;20962;-83
2021/04/02 01:44:13;;;;;;;42.03;40.13;;;3.00;99.90;;;;;;4939160;29;20954;-83
2021/04/02 01:46:42;;;;;;;45.30;42.80;;;3.00;99.90;;;;;;4939104;29;20495;-83
2021/04/02 01:49:11;;;;;;;44.30;41.93;;;3.10;99.90;;;;;;4937848;29;20461;-83
2021/04/02 01:51:42;;;;;;;46.07;43.77;;;3.10;99.90;;;;;;4938977;29;20551;-83
2021/04/02 01:54:11;;;;;;;45.20;42.90;;;3.20;99.90;;;;;;4939077;29;20533;-83
2021/04/02 01:56:41;;;;;;;39.87;37.57;;;3.30;99.90;;;;;;4938960;29;20460;-83
2021/04/02 01:59:10;;;;;;;38.27;35.87;;;3.30;99.90;;;;;;4938898;29;20821;-82
2021/04/02 02:01:41;;;;;;;42.67;40.47;;;3.40;99.90;;;;;;4939205;29;20468;-83
2021/04/02 02:04:10;;;;;;;54.37;49.50;;;3.60;99.90;;;;;;4937574;29;20515;-83
2021/04/02 02:06:37;;;;;;;46.57;43.77;;;3.90;99.90;;;;;;4938682;29;20484;-83
2021/04/02 02:09:12;;;;;;;47.10;44.77;;;3.90;99.90;;;;;;4938904;29;20460;-83
2021/04/02 02:11:41;;;;;;;51.33;48.70;;;4.00;99.90;;;;;;4938641;29;20452;-83
2021/04/02 02:14:12;;;;;;;59.57;56.90;;;4.20;99.90;;;;;;4938548;29;20484;-83
2021/04/02 02:16:46;;;;;;;36.43;34.07;;;4.20;99.90;;;;;;4938706;29;20473;-84
2021/04/02 02:19:17;;;;;;;39.87;37.77;;;4.40;99.90;;;;;;4937480;29;20963;-83
2021/04/02 02:21:47;;;;;;;42.00;39.60;;;4.50;99.90;;;;;;4938504;29;20488;-84
2021/04/02 02:24:16;;;;;;;22.47;20.90;;;4.60;99.90;;;;;;4938453;29;20551;-83
2021/04/02 02:26:45;;;;;;;21.30;19.23;;;4.70;99.90;;;;;;4938391;29;20862;-81
2021/04/02 02:29:12;;;;;;;23.17;20.97;;;4.70;99.90;;;;;;4938198;29;20860;-81
2021/04/02 02:31:44;;;;;;;7.30;4.80;;;4.70;99.90;;;;;;4938394;29;20563;-81
2021/04/02 02:34:26;;;;;;;11.73;3.57;;;4.70;99.90;;;;;;4937189;29;20492;-81
2021/04/02 02:36:54;;;;;;;6.60;2.60;;;4.80;99.90;;;;;;4938268;29;20508;-81
2021/04/02 02:39:23;;;;;;;9.73;5.33;;;4.80;99.90;;;;;;4938263;29;20492;-80
2021/04/02 02:41:51;;;;;;;12.60;4.97;;;5.00;99.90;;;;;;4937730;29;20479;-81
2021/04/02 02:44:20;;;;;;;14.83;7.13;;;5.00;99.90;;;;;;4938257;29;20460;-81
2021/04/02 02:46:46;;;;;;;10.67;6.93;;;5.00;99.90;;;;;;4937806;29;20489;-81
2021/04/02 02:49:15;;;;;;;11.73;6.97;;;5.00;99.90;;;;;;4936880;29;20824;-81
2021/04/02 02:51:44;;;;;;;19.07;7.77;;;5.00;99.90;;;;;;4938029;29;20512;-81
2021/04/02 02:54:15;;;;;;;10.50;4.67;;;5.10;99.90;;;;;;4937763;29;21057;-81
2021/04/02 02:56:47;;;;;;;9.43;4.00;;;5.10;99.90;;;;;;4937963;29;20832;-81
2021/04/02 02:59:18;;;;;;;13.83;3.53;;;5.10;99.90;;;;;;4937886;29;20507;-81
2021/04/02 03:01:45;;;;;;;12.60;5.60;;;5.00;99.90;;;;;;4938068;29;20484;-83
2021/04/02 03:04:14;;;;;;;14.83;5.97;;;5.00;99.90;;;;;;4936673;29;20877;-84
2021/04/02 03:06:43;;;;;;;15.13;6.07;;;5.00;99.90;;;;;;4937570;29;20512;-83
2021/04/02 03:09:13;;;;;;;34.63;10.50;;;5.10;99.90;;;;;;4937701;29;20461;-83
2021/04/02 03:11:42;;;;;;;15.47;8.20;;;5.00;99.90;;;;;;4937667;29;20492;-83
2021/04/02 03:14:10;;;;;;;18.37;7.87;;;5.20;99.90;;;;;;4937481;29;21047;-84
2021/04/02 03:16:43;;;;;;;15.17;7.57;;;5.10;99.90;;;;;;4940069;29;20461;-83
2021/04/02 03:19:11;;;;;;;10.63;5.17;;;5.10;99.90;;;;;;4936326;29;20495;-84
2021/04/02 03:21:38;;;;;;;9.80;4.10;;;5.10;99.90;;;;;;4937435;29;20543;-84
2021/04/02 03:24:06;;;;;;;17.93;8.13;;;5.10;99.90;;;;;;4937429;29;20956;-84
2021/04/02 03:26:36;;;;;;;9.30;4.20;;;5.10;99.90;;;;;;4937302;29;20500;-83
2021/04/02 03:29:05;;;;;;;15.40;9.10;;;5.10;99.90;;;;;;4937084;29;20492;-84
2021/04/02 03:31:39;;;;;;;20.40;3.70;;;5.10;99.90;;;;;;4937478;29;20500;-83
2021/04/02 03:34:10;;;;;;;9.97;4.53;;;5.10;99.90;;;;;;4935997;29;20549;-84
2021/04/02 03:36:40;;;;;;;8.93;3.40;;;5.20;99.90;;;;;;4937156;29;20496;-83
2021/04/02 03:39:16;;;;;;;26.83;5.97;;;5.10;99.90;;;;;;4937083;29;20461;-83
2021/04/02 03:41:45;;;;;;;16.00;6.43;;;5.10;99.90;;;;;;4936975;29;20457;-83
2021/04/02 03:44:14;;;;;;;6.60;1.70;;;5.10;99.90;;;;;;4937119;29;20461;-83
2021/04/02 03:46:42;;;;;;;7.60;3.37;;;5.10;99.90;;;;;;4936945;29;20548;-83
2021/04/02 03:49:14;;;;;;;10.60;5.30;;;5.00;99.90;;;;;;4935673;29;20457;-84
2021/04/02 03:51:44;;;;;;;9.57;3.17;;;5.00;99.90;;;;;;4936873;29;21051;-83
2021/04/02 03:54:16;;;;;;;13.93;5.20;;;5.10;99.90;;;;;;4936007;29;20468;-83
2021/04/02 03:56:47;;;;;;;12.10;5.43;;;5.00;99.90;;;;;;4936680;29;20457;-83
2021/04/02 03:59:16;;;;;;;23.67;6.20;;;4.90;99.90;;;;;;4936737;29;20544;-84
2021/04/02 04:01:53;;;;;;;11.83;8.80;;;5.00;99.90;;;;;;4936576;29;20453;-83
2021/04/02 04:04:23;;;;;;;9.33;5.67;;;5.00;99.90;;;;;;4935546;29;20456;-83
2021/04/02 04:06:53;;;;;;;10.93;6.07;;;4.90;99.90;;;;;;4936493;29;20903;-83
2021/04/02 04:09:23;;;;;;;8.53;3.53;;;4.90;99.90;;;;;;4936556;29;20456;-83
2021/04/02 04:11:53;;;;;;;10.77;5.20;;;4.80;99.90;;;;;;4936753;29;20520;-83
2021/04/02 04:14:21;;;;;;;16.10;6.17;;;4.90;99.90;;;;;;4936363;29;20575;-83
2021/04/02 04:16:59;;;;;;;13.60;4.40;;;4.80;99.90;;;;;;4936328;29;20469;-83
2021/04/02 04:19:27;;;;;;;17.03;7.60;;;4.80;99.90;;;;;;4935311;29;20460;-83
2021/04/02 04:21:56;;;;;;;10.13;6.13;;;4.70;99.90;;;;;;4936343;29;20461;-84
2021/04/02 04:24:25;;;;;;;11.47;6.10;;;4.80;99.90;;;;;;4936405;29;20456;-84
2021/04/02 04:26:55;;;;;;;16.90;10.10;;;4.70;99.90;;;;;;4936328;29;21024;-84
2021/04/02 04:29:24;;;;;;;10.57;6.53;;;4.80;99.90;;;;;;4936333;29;20468;-84
2021/04/02 04:31:52;;;;;;;24.87;7.70;;;4.80;99.90;;;;;;4936406;29;20901;-83
2021/04/02 04:34:20;;;;;;;10.53;4.70;;;4.70;99.90;;;;;;4934907;29;20499;-84
2021/04/02 04:36:49;;;;;;;16.80;5.43;;;4.70;99.90;;;;;;4936174;29;20460;-84
2021/04/02 04:39:16;;;;;;;10.07;4.90;;;4.70;99.90;;;;;;4936132;29;20464;-84
2021/04/02 04:41:43;;;;;;;8.50;4.27;;;4.70;99.90;;;;;;4936235;29;20483;-84
2021/04/02 04:44:12;;;;;;;24.63;11.83;;;4.50;99.90;;;;;;4936087;29;20516;-83
2021/04/02 04:46:39;;;;;;;17.57;10.90;;;4.30;99.90;;;;;;4935886;29;20544;-84
2021/04/02 04:49:05;;;;;;;14.97;9.07;;;4.30;99.90;;;;;;4934930;29;20824;-84
2021/04/02 04:51:35;;;;;;;11.70;7.43;;;4.20;99.90;;;;;;4935928;29;20469;-83
2021/04/02 04:54:03;;;;;;;11.37;6.23;;;4.00;99.90;;;;;;4935936;29;20866;-81
2021/04/02 04:56:31;;;;;;;13.70;9.17;;;3.80;99.90;;;;;;4935564;29;20822;-81
2021/04/02 04:59:01;;;;;;;15.57;11.40;;;3.70;99.90;;;;;;4935762;29;21006;-80
2021/04/02 05:01:33;;;;;;;9.47;6.87;;;3.60;99.90;;;;;;4935718;29;20465;-83
2021/04/02 05:04:00;;;;;;;16.20;10.17;;;3.40;99.90;;;;;;4934630;29;20496;-84
2021/04/02 05:06:28;;;;;;;17.13;10.37;;;3.40;99.90;;;;;;4937709;29;20504;-80
2021/04/02 05:08:55;;;;;;;15.40;9.10;;;3.20;99.90;;;;;;4935809;29;20461;-81
2021/04/02 05:11:25;;;;;;;7.87;4.90;;;3.10;99.90;;;;;;4935812;29;20535;-81
2021/04/02 05:13:52;;;;;;;19.10;7.10;;;3.20;99.90;;;;;;4935573;29;20532;-81
2021/04/02 05:16:21;;;;;;;46.57;11.43;;;3.20;99.90;;;;;;4935620;29;20468;-81
2021/04/02 05:18:51;;;;;;;14.53;13.23;;;3.10;99.90;;;;;;4934501;29;20464;-81
2021/04/02 05:23:53;;;;;;;10.40;8.80;;;3.30;99.90;;;;;;5113854;23;20480;-81
2021/04/02 05:26:20;;;;;;;52.47;11.03;;;3.50;99.90;;;;;;4935440;29;20992;-81
2021/04/02 05:28:53;;;;;;;10.80;6.80;;;3.80;99.90;;;;;;4935466;29;20512;-81
2021/04/02 05:31:20;;;;;;;9.03;4.90;;;4.10;99.90;;;;;;4935767;29;20453;-81
2021/04/02 05:33:46;;;;;;;14.43;7.10;;;4.20;99.90;;;;;;4934269;29;20504;-81
2021/04/02 05:36:13;;;;;;;20.53;18.53;;;4.30;99.90;;;;;;4935413;29;20488;-81
2021/04/02 05:38:40;;;;;;;19.17;16.80;;;4.40;99.90;;;;;;4935684;29;20464;-81
2021/04/02 05:41:08;;;;;;;23.47;18.83;;;4.50;99.90;;;;;;4935335;29;21011;-82
2021/04/02 05:43:40;;;;;;;29.30;26.57;;;4.60;99.90;;;;;;4935374;29;20520;-82
2021/04/02 05:46:09;;;;;;;17.20;15.40;;;4.70;99.90;;;;;;4935301;29;21091;-82
2021/04/02 05:48:38;;;;;;;9.77;8.77;;;4.70;99.90;;;;;;4934486;29;20472;-81
2021/04/02 05:51:06;;;;;;;17.10;15.57;;;4.70;99.90;;;;;;4935347;29;20877;-81
2021/04/02 05:53:36;;;;;;;16.30;10.17;;;4.70;99.90;;;;;;4935191;29;20520;-81
2021/04/02 05:56:11;;;;;;;16.50;14.60;;;4.80;99.90;;;;;;4935414;29;20468;-81
2021/04/02 05:58:41;;;;;;;10.83;9.63;;;4.80;99.90;;;;;;4935232;29;20508;-82
2021/04/02 06:01:08;;;;;;;23.33;11.03;;;4.80;99.90;;;;;;4935205;29;20497;-82
2021/04/02 06:03:36;;;;;;;9.50;7.57;;;4.90;99.90;;;;;;4934054;29;20488;-82
2021/04/02 06:06:04;;;;;;;12.47;6.43;;;4.90;99.90;;;;;;4935066;29;20476;-81
2021/04/02 06:08:33;;;;;;;24.13;10.30;;;4.90;99.90;;;;;;4935346;29;20464;-81
2021/04/02 06:11:02;;;;;;;15.20;7.80;;;4.90;99.90;;;;;;4935168;29;20829;-81
2021/04/02 06:13:28;;;;;;;13.50;8.87;;;4.90;99.90;;;;;;4935221;29;20468;-81
2021/04/02 06:15:59;;;;;;;11.63;7.40;;;5.00;99.90;;;;;;4935083;29;20502;-82
2021/04/02 06:18:26;;;;;;;21.07;8.60;;;5.00;99.90;;;;;;4936906;29;20461;-81
2021/04/02 06:21:00;;;;;;;15.60;7.33;;;5.00;99.90;;;;;;4938695;29;20543;-82
2021/04/02 06:23:28;;;;;;;24.90;11.70;;;5.00;99.90;;;;;;4938338;29;20484;-82
2021/04/02 06:25:56;;;;;;;23.40;13.07;;;5.00;99.90;;;;;;4938235;29;20460;-81
2021/04/02 06:28:25;;;;;;;22.57;10.70;;;5.10;99.90;;;;;;4938391;29;20492;-82
2021/04/02 06:31:03;;;;;;;18.93;6.97;;;5.10;99.90;;;;;;4938401;29;20492;-81
2021/04/02 06:33:34;;;;;;;33.83;14.47;;;5.20;99.90;;;;;;4936982;29;20859;-81
2021/04/02 06:36:02;;;;;;;16.70;9.23;;;5.30;99.90;;;;;;4938258;29;20497;-81
2021/04/02 06:38:30;;;;;;;47.27;13.07;;;5.30;99.90;;;;;;4938154;29;20483;-82
2021/04/02 06:41:06;;;;;;;42.97;13.20;;;5.30;99.90;;;;;;4938131;29;20463;-82
2021/04/02 06:43:43;;;;;;;29.30;10.63;;;5.50;99.90;;;;;;4938324;29;20452;-82
2021/04/02 06:46:11;;;;;;;21.07;9.93;;;5.40;99.90;;;;;;4938053;29;20484;-83
2021/04/02 06:48:38;;;;;;;32.87;14.07;;;5.50;99.90;;;;;;4939162;29;20886;-82
2021/04/02 06:51:13;;;;;;;28.20;12.93;;;5.60;99.90;;;;;;4938104;29;20460;-82
2021/04/02 06:53:43;;;;;;;34.80;12.40;;;5.60;99.90;;;;;;4937910;29;20448;-83
2021/04/02 06:56:11;;;;;;;33.40;13.70;;;5.70;99.90;;;;;;4937778;29;20885;-83
2021/04/02 06:58:40;;;;;;;43.13;16.57;;;5.70;99.90;;;;;;4937773;29;20532;-81
2021/04/02 07:01:16;;;;;;;36.77;14.20;;;5.70;99.90;;;;;;4937802;29;20948;-81
2021/04/02 07:03:44;;;;;;;41.97;15.50;;;5.80;99.90;;;;;;4936650;29;20491;-82
2021/04/02 07:06:18;;;;;;;37.23;15.03;;;6.10;99.90;;;;;;4937605;29;20520;-82
2021/04/02 07:08:47;;;;;;;29.40;11.30;;;6.00;99.90;;;;;;4937701;29;21047;-83
2021/04/02 07:11:14;;;;;;;41.53;13.50;;;5.90;99.90;;;;;;4937641;29;20474;-82
2021/04/02 07:13:48;;;;;;;43.03;15.87;;;6.00;99.90;;;;;;4937635;29;20942;-82
2021/04/02 07:16:17;;;;;;;29.53;13.27;;;6.10;99.90;;;;;;4937461;29;20465;-82
2021/04/02 07:18:44;;;;;;;43.97;13.40;;;6.10;99.90;;;;;;4936109;29;20517;-82
2021/04/02 07:21:13;;;;;;;30.80;12.23;;;6.10;99.90;;;;;;4934243;29;21015;-82
2021/04/02 07:23:41;;;;;;;21.83;10.70;;;6.10;99.90;;;;;;4936353;29;20520;-82
2021/04/02 07:26:08;;;;;;;13.07;5.60;;;6.10;99.90;;;;;;4936476;29;20993;-81
2021/04/02 07:28:37;;;;;;;33.37;13.40;;;6.20;99.90;;;;;;4936307;29;20549;-82
2021/04/02 07:31:21;;;;;;;;;;;;;;;;;;;;;
2021/04/02 07:33:51;;;;;;;31.83;11.57;;;6.30;99.90;;;;;;4934849;29;20449;-81
2021/04/02 07:36:21;;;;;;;16.10;7.50;;;6.30;99.90;;;;;;4936224;29;20468;-82
2021/04/02 07:38:52;;;;;;;15.67;6.03;;;6.20;99.90;;;;;;4936571;29;20457;-82
2021/04/02 07:41:23;;;;;;;23.03;9.70;;;6.20;99.90;;;;;;4936245;29;20482;-82
2021/04/02 07:44:10;;;;;;;;;;;;;;;;;;;;;
2021/04/02 07:46:37;;;;;;;18.57;5.90;;;6.30;99.90;;;;;;4935766;29;20482;-82
2021/04/02 07:49:07;;;;;;;25.83;10.80;;;6.10;99.90;;;;;;4927053;29;20463;-83
2021/04/02 07:51:41;;;;;;;19.03;9.97;;;6.20;99.90;;;;;;4954022;29;20970;-82
2021/04/02 07:54:32;;;;;;;23.80;9.70;;;6.40;99.90;;;;;;4953762;29;20492;-83
2021/04/02 07:57:22;;;;;;;28.43;10.90;;;6.60;99.90;;;;;;4953289;29;20908;-82
2021/04/02 07:59:51;;;;;;;38.23;15.70;;;6.40;96.00;;;;;;4953801;29;20461;-82
2021/04/02 08:02:29;;;;;;;24.70;12.57;;;6.70;98.80;;;;;;4923994;29;20514;-83
2021/04/02 08:04:57;;;;;;;36.83;16.90;;;6.60;98.30;;;;;;4922589;29;20588;-82
2021/04/02 08:07:32;;;;;;;37.47;14.70;;;6.50;96.50;;;;;;4924224;29;20537;-82
2021/04/02 08:10:00;;;;;;;53.00;17.03;;;6.30;98.00;;;;;;4924340;29;20466;-82
2021/04/02 08:12:30;;;;;;;41.93;14.53;;;6.40;99.90;;;;;;4914208;29;20470;-82
2021/04/02 08:15:01;;;;;;;25.97;8.80;;;6.40;99.90;;;;;;4914885;29;20957;-82
2021/04/02 08:17:29;;;;;;;40.23;12.63;;;6.40;99.90;;;;;;4921206;29;20787;-82
2021/04/02 08:20:09;;;;;;;21.93;10.07;;;6.40;98.70;;;;;;4922557;29;20461;-82
2021/04/02 08:22:42;;;;;;;23.50;10.33;;;6.30;99.90;;;;;;4923324;29;20521;-82
2021/04/02 08:25:11;;;;;;;33.60;12.33;;;6.20;99.90;;;;;;4923616;29;20983;-82
2021/04/02 08:27:39;;;;;;;32.40;14.83;;;6.30;99.90;;;;;;4923960;29;20526;-82
2021/04/02 08:30:09;;;;;;;28.63;13.77;;;6.30;99.90;;;;;;4923441;29;20940;-82
2021/04/02 08:32:39;;;;;;;82.50;15.07;;;6.50;95.90;;;;;;4922737;29;20470;-82
2021/04/02 08:35:07;;;;;;;33.27;15.17;;;6.60;96.80;;;;;;4913869;29;20510;-82
2021/04/02 08:40:17;;;;;;;22.37;12.33;;;6.90;89.80;;;;;;4888937;29;20469;-82
2021/04/02 08:42:43;;;;;;;27.07;9.33;;;6.90;86.00;;;;;;4916515;29;20469;-82
2021/04/02 08:45:12;;;;;;;13.03;5.83;;;6.90;82.90;;;;;;4914464;29;20464;-83
2021/04/02 08:47:42;;;;;;;16.83;7.00;;;7.00;76.30;;;;;;4915796;29;20489;-83
2021/04/02 08:50:21;;;;;;;;;;;;;;;;;;;;;
2021/04/02 08:52:59;;;;;;;27.90;10.70;;;7.50;69.40;;;;;;4914198;29;20508;-83
2021/04/02 08:55:43;;;;;;;20.30;7.70;;;7.70;58.80;;;;;;4916661;29;20480;-83
2021/04/02 08:58:12;;;;;;;22.10;7.33;;;7.80;54.00;;;;;;4916773;29;20471;-83
2021/04/02 09:00:46;;;;;;;13.17;3.73;;;7.70;50.80;;;;;;4916696;29;20475;-83
2021/04/02 09:03:16;;;;;;;29.00;9.30;;;7.90;49.50;;;;;;4916779;29;20465;-83
2021/04/02 09:05:52;;;;;;;16.90;5.90;;;8.20;45.20;;;;;;4915640;29;20458;-82
2021/04/02 09:08:20;;;;;;;28.93;12.37;;;8.30;41.20;;;;;;4916669;29;20549;-83
2021/04/02 09:10:47;;;;;;;29.13;11.27;;;8.50;43.50;;;;;;4916672;29;20464;-83
2021/04/02 09:13:13;;;;;;;37.20;16.57;;;8.30;43.30;;;;;;4916709;29;20465;-83
2021/04/02 09:15:42;;;;;;;34.03;14.10;;;8.40;46.90;;;;;;4916627;29;20465;-83
2021/04/02 09:18:16;;;;;;;22.80;9.97;;;8.40;41.70;;;;;;4916458;29;20476;-83
2021/04/02 09:20:53;;;;;;;18.80;8.20;;;8.30;38.30;;;;;;4915544;29;20454;-83
2021/04/02 09:23:20;;;;;;;27.20;10.00;;;8.10;40.50;;;;;;4916467;29;20485;-83
2021/04/02 09:25:49;;;;;;;25.47;8.57;;;7.80;41.30;;;;;;4916582;29;20461;-83
2021/04/02 09:28:26;;;;;;;25.30;9.87;;;7.80;43.00;;;;;;4916499;29;20531;-82
2021/04/02 09:31:18;;;;;;;23.20;10.23;;;7.70;44.30;;;;;;4916473;29;20465;-83
2021/04/02 09:33:50;;;;;;;18.53;8.23;;;7.70;46.40;;;;;;4915162;29;20492;-83
2021/04/02 09:36:18;;;;;;;20.90;9.07;;;7.70;42.00;;;;;;4916623;29;20468;-82
2021/04/02 09:38:50;;;;;;;26.40;12.60;;;7.70;51.40;;;;;;4916677;29;20819;-83
2021/04/02 09:41:26;;;;;;;21.73;7.93;;;7.60;45.30;;;;;;4916656;29;20489;-82
2021/04/02 09:43:54;;;;;;;27.33;11.30;;;7.90;47.30;;;;;;4916330;29;20473;-82
2021/04/02 09:46:34;;;;;;;31.73;12.43;;;7.80;52.70;;;;;;4916340;29;20464;-83
2021/04/02 09:49:08;;;;;;;38.00;16.20;;;7.70;55.10;;;;;;4914998;29;20468;-82
2021/04/02 09:51:38;;;;;;;25.00;11.87;;;7.60;55.20;;;;;;4916591;29;20481;-83
2021/04/02 09:54:07;;;;;;;36.07;17.37;;;7.50;59.40;;;;;;4920168;29;20462;-83
2021/04/02 09:56:33;;;;;;;33.00;14.97;;;7.60;61.50;;;;;;4919890;29;20548;-82
2021/04/02 09:59:00;;;;;;;32.90;12.90;;;7.40;59.10;;;;;;4919922;29;20461;-82
2021/04/02 10:01:43;;;;;;;38.13;14.50;;;7.50;55.50;;;;;;4919925;29;20453;-83
2021/04/02 10:04:17;;;;;;;39.60;14.70;;;7.50;59.10;;;;;;4918418;29;20466;-83
2021/04/02 10:06:44;;;;;;;33.47;13.50;;;7.60;60.80;;;;;;4919738;29;20501;-82
2021/04/02 10:09:14;;;;;;;29.33;13.73;;;7.60;58.70;;;;;;4919771;29;20967;-83
2021/04/02 10:11:42;;;;;;;23.93;9.40;;;7.50;51.70;;;;;;4919776;29;20460;-83
2021/04/02 10:14:14;;;;;;;28.33;12.13;;;7.70;47.90;;;;;;4919596;29;20517;-83
2021/04/02 10:16:41;;;;;;;23.30;11.27;;;7.60;51.40;;;;;;4919650;29;20469;-82
2021/04/02 10:19:09;;;;;;;45.53;13.40;;;7.50;55.70;;;;;;4918585;29;20480;-83
2021/04/02 10:21:36;;;;;;;28.87;9.70;;;7.70;58.20;;;;;;4919587;29;20533;-82
2021/04/02 10:24:09;;;;;;;27.40;13.10;;;7.60;53.70;;;;;;4919245;29;20480;-83
2021/04/02 10:26:40;;;;;;;36.70;15.13;;;7.70;56.00;;;;;;4919333;29;20576;-83
2021/04/02 10:29:07;;;;;;;23.83;10.10;;;7.60;49.40;;;;;;4919327;29;20538;-83
2021/04/02 10:31:38;;;;;;;27.63;11.67;;;7.70;51.70;;;;;;4919514;29;20463;-83
2021/04/02 10:34:10;;;;;;;33.10;11.37;;;7.50;52.30;;;;;;4918012;29;20832;-83
2021/04/02 10:39:53;;;;;;;32.60;12.20;;;7.60;54.70;;;;;;4916273;29;20467;-82
2021/04/02 10:42:57;;;;;;;12.70;4.53;;;7.70;56.90;;;;;;4918307;29;20866;-83
2021/04/02 10:45:38;;;;;;;31.87;15.20;;;7.60;48.30;;;;;;4823030;29;20580;-83
2021/04/02 10:48:06;;;;;;;28.87;12.63;;;7.70;49.70;;;;;;4822715;29;20493;-83
2021/04/02 10:50:33;;;;;;;32.27;13.17;;;7.80;49.90;;;;;;4890574;29;20466;-83
2021/04/02 10:53:03;;;;;;;39.57;18.73;;;7.80;46.90;;;;;;4918490;29;20465;-82
2021/04/02 10:55:29;;;;;;;35.13;16.20;;;7.80;48.00;;;;;;4929505;29;20555;-82
2021/04/02 10:57:59;;;;;;;52.67;17.17;;;7.70;47.70;;;;;;4952594;29;20891;-82
2021/04/02 11:00:25;;;;;;;43.47;18.60;;;7.70;48.60;;;;;;4954131;29;20559;-82
2021/04/02 11:02:54;;;;;;;38.30;12.97;;;7.60;48.60;;;;;;4954555;28;20877;-82
2021/04/02 11:05:29;;;;;;;44.50;21.27;;;7.60;49.00;;;;;;4953400;29;20474;-82
2021/04/02 11:07:56;;;;;;;52.27;19.03;;;7.60;48.10;;;;;;4954719;29;20486;-82
2021/04/02 11:10:24;;;;;;;42.30;16.00;;;7.50;48.50;;;;;;4954752;29;20544;-83
2021/04/02 11:12:54;;;;;;;35.50;16.87;;;7.60;49.80;;;;;;4954944;29;20467;-82
2021/04/02 11:15:21;;;;;;;41.23;18.07;;;7.50;53.60;;;;;;4951731;29;20479;-82
2021/04/02 11:17:49;;;;;;;40.67;16.23;;;7.70;54.80;;;;;;4954603;29;20490;-83
2021/04/02 11:20:18;;;;;;;37.47;15.50;;;7.50;52.70;;;;;;4953185;29;20534;-82
2021/04/02 11:22:45;;;;;;;38.23;17.93;;;7.50;51.70;;;;;;4953987;29;21040;-82
2021/04/02 11:25:13;;;;;;;29.53;10.07;;;7.40;52.70;;;;;;4954650;29;20466;-82
2021/04/02 11:27:42;;;;;;;30.50;11.90;;;7.60;55.30;;;;;;4954470;29;20494;-82
2021/04/02 11:30:13;;;;;;;39.57;13.63;;;7.70;53.20;;;;;;4954247;29;21035;-82
2021/04/02 11:32:40;;;;;;;23.83;9.50;;;7.70;49.00;;;;;;4954598;29;20490;-83
2021/04/02 11:35:08;;;;;;;38.57;15.30;;;7.60;47.60;;;;;;4953142;29;20466;-81
2021/04/02 11:37:35;;;;;;;36.67;11.57;;;7.40;45.10;;;;;;4954491;29;20462;-82
2021/04/02 11:40:06;;;;;;;30.00;12.90;;;7.50;51.90;;;;;;4953877;29;20468;-82
2021/04/02 11:42:35;;;;;;;31.47;12.63;;;7.30;46.90;;;;;;4948149;29;20466;-82
2021/04/02 11:45:06;;;;;;;24.20;12.80;;;7.30;47.50;;;;;;4924522;29;20473;-82
2021/04/02 11:47:32;;;;;;;25.90;9.90;;;7.10;51.60;;;;;;4924160;29;20501;-82
2021/04/02 11:50:00;;;;;;;21.77;7.67;;;7.10;55.40;;;;;;4923156;29;20499;-82
2021/04/02 11:52:28;;;;;;;20.13;8.40;;;7.00;55.90;;;;;;4924178;29;20820;-82
2021/04/02 11:54:56;;;;;;;14.90;7.13;;;7.10;59.40;;;;;;4921861;29;20493;-82
2021/04/02 11:57:23;;;;;;;12.00;6.90;;;6.90;52.90;;;;;;4918861;29;20467;-82
2021/04/02 11:59:53;;;;;;;15.87;6.50;;;6.90;54.60;;;;;;4917275;29;20942;-82
2021/04/02 12:02:20;;;;;;;18.97;7.10;;;7.00;53.50;;;;;;4916610;29;20465;-83
2021/04/02 12:04:48;;;;;;;14.77;3.93;;;6.90;52.00;;;;;;4916064;29;20464;-82
2021/04/02 12:07:14;;;;;;;23.23;7.40;;;7.00;54.10;;;;;;4916181;29;20759;-82
2021/04/02 12:09:43;;;;;;;16.50;6.50;;;7.00;48.50;;;;;;4916204;29;20461;-82
2021/04/02 12:12:09;;;;;;;24.40;6.93;;;7.00;46.20;;;;;;4916138;29;20470;-82
2021/04/02 12:14:36;;;;;;;20.30;6.93;;;6.90;49.60;;;;;;4916013;29;20462;-82
2021/04/02 12:17:03;;;;;;;22.40;6.40;;;7.10;49.20;;;;;;4917427;29;20488;-81
2021/04/02 12:19:30;;;;;;;11.83;4.90;;;7.10;45.10;;;;;;4916014;29;20955;-82
2021/04/02 12:21:57;;;;;;;15.40;4.37;;;7.10;45.40;;;;;;4917178;29;20881;-82
2021/04/02 12:24:23;;;;;;;11.03;2.00;;;7.00;44.70;;;;;;4917366;29;20606;-82
2021/04/02 12:26:49;;;;;;;11.20;3.80;;;7.10;47.10;;;;;;4917218;29;21023;-82
2021/04/02 12:29:16;;;;;;;12.07;3.07;;;7.10;45.20;;;;;;4917243;29;20551;-82
2021/04/02 12:31:42;;;;;;;8.40;3.20;;;7.10;43.30;;;;;;4917336;29;20449;-82
2021/04/02 12:34:09;;;;;;;11.80;3.30;;;7.20;42.60;;;;;;4915723;29;20825;-82
2021/04/02 12:36:36;;;;;;;8.70;2.50;;;7.20;39.60;;;;;;4916991;29;21046;-82
2021/04/02 12:39:03;;;;;;;7.60;1.73;;;7.10;39.60;;;;;;4916994;29;20532;-82
2021/04/02 12:41:29;;;;;;;23.43;2.90;;;7.20;43.10;;;;;;4917145;29;20832;-82
2021/04/02 12:43:56;;;;;;;7.70;2.03;;;7.30;42.50;;;;;;4917017;29;20951;-82
2021/04/02 12:46:22;;;;;;;15.10;4.93;;;7.30;38.80;;;;;;4917024;29;20464;-82
2021/04/02 12:48:49;;;;;;;8.53;2.83;;;7.40;42.00;;;;;;4915691;29;20468;-82
2021/04/02 12:51:15;;;;;;;9.67;3.17;;;7.60;38.40;;;;;;4916834;29;20470;-82
2021/04/02 12:53:44;;;;;;;16.40;3.33;;;7.80;34.20;;;;;;4916889;29;20527;-82
2021/04/02 12:56:10;;;;;;;9.17;2.80;;;8.10;34.20;;;;;;4916932;29;20463;-82
2021/04/02 12:58:37;;;;;;;7.43;1.43;;;8.00;26.40;;;;;;4916900;29;20799;-82
2021/04/02 13:01:03;;;;;;;10.40;3.20;;;8.30;31.00;;;;;;4916848;29;20460;-82
2021/04/02 13:03:30;;;;;;;9.83;2.47;;;8.50;28.30;;;;;;4916603;29;20462;-82
2021/04/02 13:05:58;;;;;;;8.87;2.77;;;8.30;24.40;;;;;;4915011;29;20980;-82